createdAt,value
2019-02-17T00:02:10.037Z,11.33
2019-02-17T00:04:40.891Z,11.60
2019-02-17T00:07:12.170Z,12.53
2019-02-17T00:09:42.944Z,11.53
2019-02-17T00:12:13.503Z,9.60
2019-02-17T00:14:44.332Z,11.37
2019-02-17T00:17:15.043Z,15.83
2019-02-17T00:19:46.678Z,9.47
2019-02-17T00:22:18.738Z,10.83
2019-02-17T00:24:49.434Z,10.77
2019-02-17T00:27:20.709Z,7.83
2019-02-17T00:29:51.754Z,8.63
2019-02-17T00:32:22.646Z,11.23
2019-02-17T00:34:53.478Z,9.97
2019-02-17T00:37:24.112Z,9.93
2019-02-17T00:39:55.030Z,7.70
2019-02-17T00:42:25.650Z,6.97
2019-02-17T00:44:59.670Z,9.00
2019-02-17T00:47:30.634Z,7.97
2019-02-17T00:50:01.582Z,7.57
2019-02-17T00:52:32.546Z,8.80
2019-02-17T00:55:03.583Z,8.50
2019-02-17T00:57:34.402Z,7.60
2019-02-17T01:00:06.494Z,7.43
2019-02-17T01:02:39.520Z,7.90
2019-02-17T01:05:10.403Z,7.13
2019-02-17T01:07:42.002Z,7.30
2019-02-17T01:10:12.659Z,8.43
2019-02-17T01:12:43.390Z,6.60
2019-02-17T01:15:14.341Z,8.33
2019-02-17T01:17:46.077Z,6.30
2019-02-17T01:20:16.906Z,5.93
2019-02-17T01:22:47.492Z,5.97
2019-02-17T01:25:20.754Z,6.10
2019-02-17T01:27:51.350Z,7.90
2019-02-17T01:30:22.316Z,8.13
2019-02-17T01:32:52.958Z,8.80
2019-02-17T01:35:24.086Z,7.00
2019-02-17T01:37:54.782Z,5.97
2019-02-17T01:40:26.447Z,5.83
2019-02-17T01:42:57.114Z,5.63
2019-02-17T01:45:27.858Z,6.43
2019-02-17T01:47:58.778Z,6.67
2019-02-17T01:50:30.054Z,8.50
2019-02-17T01:53:00.865Z,6.37
2019-02-17T01:55:31.341Z,5.80
2019-02-17T01:58:01.775Z,5.40
2019-02-17T02:00:32.542Z,5.13
2019-02-17T02:03:05.070Z,6.10
2019-02-17T02:05:35.876Z,4.83
2019-02-17T02:08:06.614Z,4.90
2019-02-17T02:10:37.268Z,4.37
2019-02-17T02:13:08.098Z,5.33
2019-02-17T02:15:38.770Z,6.30
2019-02-17T02:18:09.757Z,4.80
2019-02-17T02:20:40.478Z,4.30
2019-02-17T02:23:11.153Z,4.57
2019-02-17T02:25:43.512Z,3.57
2019-02-17T02:28:14.386Z,4.10
2019-02-17T02:30:47.764Z,4.90
2019-02-17T02:33:19.482Z,5.63
2019-02-17T02:35:51.055Z,4.13
2019-02-17T02:38:21.995Z,5.13
2019-02-17T02:40:52.962Z,5.73
2019-02-17T02:43:23.607Z,5.50
2019-02-17T02:45:54.471Z,4.03
2019-02-17T02:48:25.094Z,5.30
2019-02-17T02:50:55.751Z,5.43
2019-02-17T02:53:26.403Z,3.43
2019-02-17T02:55:57.308Z,5.67
2019-02-17T02:58:28.058Z,5.53
2019-02-17T03:00:58.994Z,5.23
2019-02-17T03:03:30.358Z,4.77
2019-02-17T03:06:11.507Z,4.23
2019-02-17T03:08:43.439Z,4.97
2019-02-17T03:11:14.527Z,3.20
2019-02-17T03:13:45.110Z,5.03
2019-02-17T03:16:15.738Z,4.43
2019-02-17T03:18:46.262Z,4.40
2019-02-17T03:21:16.876Z,5.83
2019-02-17T03:23:48.108Z,4.80
2019-02-17T03:26:18.903Z,4.40
2019-02-17T03:28:50.156Z,5.03
2019-02-17T03:31:20.631Z,5.73
2019-02-17T03:33:51.566Z,4.43
2019-02-17T03:36:22.426Z,3.83
2019-02-17T03:38:53.296Z,3.57
2019-02-17T03:41:23.899Z,3.10
2019-02-17T03:43:54.865Z,3.30
2019-02-17T03:46:25.995Z,6.03
2019-02-17T03:48:56.883Z,4.10
2019-02-17T03:51:27.802Z,3.77
2019-02-17T03:53:58.550Z,4.33
2019-02-17T03:56:29.344Z,2.63
2019-02-17T03:58:59.817Z,3.43
2019-02-17T04:01:30.771Z,4.73
2019-02-17T04:04:01.616Z,4.67
2019-02-17T04:06:32.332Z,3.93
2019-02-17T04:09:06.010Z,4.77
2019-02-17T04:11:36.682Z,5.30
2019-02-17T04:14:07.362Z,3.30
2019-02-17T04:16:38.142Z,2.53
2019-02-17T04:19:09.070Z,4.27
2019-02-17T04:21:41.335Z,4.17
2019-02-17T04:24:12.118Z,2.60
2019-02-17T04:26:43.041Z,3.10
2019-02-17T04:29:13.659Z,2.47
2019-02-17T04:31:44.442Z,3.63
2019-02-17T04:34:15.150Z,4.17
2019-02-17T04:36:46.084Z,3.77
2019-02-17T04:39:16.792Z,4.13
2019-02-17T04:41:47.434Z,3.60
2019-02-17T04:44:17.974Z,2.43
2019-02-17T04:46:48.545Z,3.43
2019-02-17T04:49:19.195Z,5.57
2019-02-17T04:51:49.874Z,3.13
2019-02-17T04:54:20.650Z,2.60
2019-02-17T04:56:51.308Z,3.10
2019-02-17T04:59:22.141Z,4.57
2019-02-17T05:01:53.225Z,4.40
2019-02-17T05:04:24.210Z,4.40
2019-02-17T05:06:54.895Z,4.87
2019-02-17T05:09:25.842Z,3.80
2019-02-17T05:11:56.866Z,3.87
2019-02-17T05:14:29.254Z,3.13
2019-02-17T05:17:00.378Z,3.30
2019-02-17T05:19:30.895Z,2.83
2019-02-17T05:22:01.766Z,3.00
2019-02-17T05:24:32.703Z,2.80
2019-02-17T05:27:03.440Z,5.10
2019-02-17T05:29:34.381Z,5.03
2019-02-17T05:32:04.943Z,2.33
2019-02-17T05:34:35.674Z,3.17
2019-02-17T05:37:06.606Z,1.53
2019-02-17T05:39:37.347Z,2.77
2019-02-17T05:42:08.460Z,1.97
2019-02-17T05:44:39.291Z,4.70
2019-02-17T05:47:09.935Z,3.80
2019-02-17T05:49:41.594Z,3.33
2019-02-17T05:52:12.450Z,3.27
2019-02-17T05:54:43.688Z,3.63
2019-02-17T05:57:14.507Z,2.77
2019-02-17T05:59:45.550Z,4.03
2019-02-17T06:02:16.451Z,4.17
2019-02-17T06:04:46.947Z,4.00
2019-02-17T06:07:18.677Z,1.73
2019-02-17T06:09:49.554Z,2.73
2019-02-17T06:12:21.138Z,2.63
2019-02-17T06:14:52.113Z,3.57
2019-02-17T06:17:22.948Z,4.93
2019-02-17T06:19:53.548Z,2.07
2019-02-17T06:22:24.198Z,4.00
2019-02-17T06:24:55.263Z,2.80
2019-02-17T06:27:25.931Z,2.90
2019-02-17T06:29:56.858Z,2.10
2019-02-17T06:32:27.671Z,3.80
2019-02-17T06:34:58.223Z,4.57
2019-02-17T06:37:29.122Z,2.63
2019-02-17T06:39:59.743Z,3.47
2019-02-17T06:42:33.027Z,2.40
2019-02-17T06:45:03.732Z,1.63
2019-02-17T06:47:35.742Z,4.73
2019-02-17T06:50:07.257Z,2.70
2019-02-17T06:52:38.358Z,3.00
2019-02-17T06:55:30.816Z,3.13
2019-02-17T06:58:01.990Z,2.80
2019-02-17T07:00:38.644Z,2.43
2019-02-17T07:03:09.663Z,3.43
2019-02-17T07:06:08.807Z,2.77
2019-02-17T07:08:39.714Z,4.37
2019-02-17T07:11:11.982Z,2.10
2019-02-17T07:13:42.786Z,2.30
2019-02-17T07:16:13.384Z,3.13
2019-02-17T07:18:44.208Z,4.57
2019-02-17T07:21:14.992Z,3.83
2019-02-17T07:23:45.663Z,2.90
2019-02-17T07:26:17.341Z,2.80
2019-02-17T07:28:48.118Z,3.10
2019-02-17T07:31:18.871Z,3.63
2019-02-17T07:33:50.504Z,2.20
2019-02-17T07:36:22.106Z,2.57
2019-02-17T07:38:53.009Z,2.63
2019-02-17T07:41:25.190Z,6.93
2019-02-17T07:43:56.109Z,2.57
2019-02-17T07:46:27.153Z,3.77
2019-02-17T07:48:58.011Z,1.70
2019-02-17T07:51:28.782Z,3.87
2019-02-17T07:53:59.628Z,3.47
2019-02-17T07:56:30.406Z,4.10
2019-02-17T07:59:01.062Z,2.83
2019-02-17T08:01:31.971Z,2.20
2019-02-17T08:04:04.514Z,3.23
2019-02-17T08:06:35.642Z,3.40
2019-02-17T08:09:06.870Z,3.30
2019-02-17T08:11:38.026Z,1.80
2019-02-17T08:14:08.818Z,1.83
2019-02-17T08:16:39.878Z,3.13
2019-02-17T08:19:10.662Z,2.27
2019-02-17T08:21:41.331Z,4.17
2019-02-17T08:24:11.810Z,3.17
2019-02-17T08:26:42.635Z,2.90
2019-02-17T08:29:13.297Z,3.53
2019-02-17T08:31:54.936Z,3.60
2019-02-17T08:34:17.656Z,3.73
2019-02-17T08:36:48.207Z,1.77
2019-02-17T08:39:18.885Z,3.47
2019-02-17T08:41:49.611Z,2.30
2019-02-17T08:44:20.110Z,1.87
2019-02-17T08:46:52.011Z,2.00
2019-02-17T08:49:23.690Z,5.23
2019-02-17T08:51:54.994Z,2.63
2019-02-17T08:54:25.903Z,3.40
2019-02-17T08:56:56.620Z,4.63
2019-02-17T08:59:29.386Z,3.07
2019-02-17T09:02:05.963Z,3.00
2019-02-17T09:04:32.346Z,1.93
2019-02-17T09:07:03.270Z,2.70
2019-02-17T09:09:34.324Z,2.37
2019-02-17T09:12:05.192Z,2.33
2019-02-17T09:14:35.962Z,3.03
2019-02-17T09:17:06.838Z,4.00
2019-02-17T09:19:37.864Z,3.97
2019-02-17T09:22:09.059Z,3.50
2019-02-17T09:24:39.642Z,2.40
2019-02-17T09:27:10.694Z,5.50
2019-02-17T09:29:41.314Z,3.17
2019-02-17T09:32:16.263Z,1.70
2019-02-17T09:34:45.087Z,3.67
2019-02-17T09:37:15.890Z,2.50
2019-02-17T09:39:46.573Z,3.93
2019-02-17T09:42:17.630Z,2.63
2019-02-17T09:44:48.098Z,1.47
2019-02-17T09:47:19.018Z,3.10
2019-02-17T09:49:50.118Z,2.73
2019-02-17T09:52:21.836Z,3.13
2019-02-17T09:54:52.531Z,5.10
2019-02-17T09:57:24.272Z,3.80
2019-02-17T09:59:54.974Z,1.93
2019-02-17T10:02:26.902Z,1.47
2019-02-17T10:04:57.859Z,3.83
2019-02-17T10:07:28.727Z,2.97
2019-02-17T10:09:59.535Z,2.33
2019-02-17T10:12:30.338Z,3.70
2019-02-17T10:15:01.395Z,4.37
2019-02-17T10:17:32.218Z,3.73
2019-02-17T10:20:03.272Z,4.60
2019-02-17T10:22:36.068Z,4.03
2019-02-17T10:25:09.148Z,4.30
2019-02-17T10:27:40.227Z,3.13
2019-02-17T10:30:13.089Z,3.90
2019-02-17T10:32:44.135Z,3.43
2019-02-17T10:35:15.051Z,2.80
2019-02-17T10:37:45.850Z,3.77
2019-02-17T10:40:17.351Z,3.83
2019-02-17T10:42:49.978Z,4.77
2019-02-17T10:45:20.582Z,2.17
2019-02-17T10:47:51.317Z,3.73
2019-02-17T10:50:23.382Z,2.17
2019-02-17T10:52:54.998Z,3.57
2019-02-17T10:55:26.429Z,4.37
2019-02-17T10:57:57.401Z,2.93
2019-02-17T11:00:29.675Z,3.33
2019-02-17T11:03:10.569Z,2.80
2019-02-17T11:05:41.402Z,4.73
2019-02-17T11:08:12.233Z,3.37
2019-02-17T11:10:42.924Z,4.47
2019-02-17T11:13:13.332Z,3.13
2019-02-17T11:15:44.078Z,3.20
2019-02-17T11:18:14.962Z,3.57
2019-02-17T11:20:45.606Z,1.60
2019-02-17T11:23:16.410Z,2.13
2019-02-17T11:25:47.462Z,2.87
2019-02-17T11:28:18.538Z,2.40
2019-02-17T11:30:49.185Z,4.67
2019-02-17T11:33:19.927Z,2.70
2019-02-17T11:35:51.663Z,3.83
2019-02-17T11:38:22.475Z,3.73
2019-02-17T11:40:53.080Z,2.80
2019-02-17T11:43:24.194Z,2.90
2019-02-17T11:45:55.042Z,3.90
2019-02-17T11:48:25.548Z,6.20
2019-02-17T11:50:56.278Z,4.93
2019-02-17T11:53:27.202Z,3.10
2019-02-17T11:55:57.909Z,3.27
2019-02-17T11:58:28.970Z,4.00
2019-02-17T12:00:59.600Z,3.33
2019-02-17T12:03:32.064Z,2.57
2019-02-17T12:06:02.819Z,3.00
2019-02-17T12:08:33.564Z,3.23
2019-02-17T12:11:04.126Z,3.50
2019-02-17T12:13:35.162Z,2.67
2019-02-17T12:16:05.983Z,2.77
2019-02-17T12:18:36.695Z,3.90
2019-02-17T12:21:29.492Z,2.70
2019-02-17T12:24:14.613Z,5.53
2019-02-17T12:27:02.938Z,3.47
2019-02-17T12:29:38.398Z,3.10
2019-02-17T12:32:10.387Z,3.17
2019-02-17T12:34:41.106Z,2.53
2019-02-17T12:37:11.802Z,3.63
2019-02-17T12:39:42.470Z,4.27
2019-02-17T12:42:13.142Z,3.00
2019-02-17T12:44:45.808Z,5.00
2019-02-17T12:47:16.531Z,3.23
2019-02-17T12:49:48.379Z,4.63
2019-02-17T12:52:19.341Z,3.97
2019-02-17T12:54:49.968Z,3.87
2019-02-17T12:57:20.586Z,3.53
2019-02-17T12:59:51.383Z,2.67
2019-02-17T13:02:21.878Z,5.27
2019-02-17T13:04:52.462Z,2.63
2019-02-17T13:07:23.541Z,4.83
2019-02-17T13:09:54.181Z,3.70
2019-02-17T13:12:24.686Z,2.07
2019-02-17T13:14:55.378Z,3.87
2019-02-17T13:17:25.986Z,3.83
2019-02-17T13:19:56.806Z,4.43
2019-02-17T13:22:27.742Z,4.23
2019-02-17T13:24:58.416Z,4.13
2019-02-17T13:27:29.318Z,3.90
2019-02-17T13:30:01.503Z,2.83
2019-02-17T13:32:33.446Z,1.90
2019-02-17T13:35:04.091Z,2.97
2019-02-17T13:37:35.217Z,3.00
2019-02-17T13:40:06.312Z,3.37
2019-02-17T13:42:36.798Z,2.90
2019-02-17T13:45:08.667Z,2.90
2019-02-17T13:47:39.346Z,3.70
2019-02-17T13:50:12.724Z,4.17
2019-02-17T13:52:43.540Z,4.10
2019-02-17T13:55:15.717Z,7.63
2019-02-17T13:57:46.723Z,3.07
2019-02-17T14:00:18.072Z,4.50
2019-02-17T14:02:48.803Z,3.13
2019-02-17T14:05:19.699Z,3.80
2019-02-17T14:07:50.430Z,5.97
2019-02-17T14:10:21.304Z,2.83
2019-02-17T14:12:52.078Z,2.57
2019-02-17T14:15:22.688Z,3.67
2019-02-17T14:17:53.671Z,5.40
2019-02-17T14:20:24.635Z,3.00
2019-02-17T14:22:55.322Z,3.70
2019-02-17T14:25:26.237Z,4.13
2019-02-17T14:27:57.207Z,2.13
2019-02-17T14:30:30.426Z,3.70
2019-02-17T14:33:03.104Z,4.30
2019-02-17T14:35:34.013Z,1.30
2019-02-17T14:38:05.025Z,3.27
2019-02-17T14:40:35.745Z,4.57
2019-02-17T14:43:06.399Z,1.93
2019-02-17T14:45:37.379Z,6.50
2019-02-17T14:48:08.100Z,3.50
2019-02-17T14:50:40.003Z,1.93
2019-02-17T14:53:10.986Z,2.37
2019-02-17T14:55:41.514Z,4.43
2019-02-17T14:58:12.418Z,3.77
2019-02-17T15:00:43.234Z,4.33
2019-02-17T15:03:14.135Z,4.73
2019-02-17T15:05:47.466Z,3.53
2019-02-17T15:08:18.076Z,3.93
2019-02-17T15:10:48.898Z,3.17
2019-02-17T15:13:24.507Z,2.83
2019-02-17T15:15:53.129Z,4.43
2019-02-17T15:18:24.034Z,5.77
2019-02-17T15:20:54.789Z,3.37
2019-02-17T15:23:27.186Z,3.40
2019-02-17T15:25:58.014Z,4.27
2019-02-17T15:28:28.829Z,2.60
2019-02-17T15:31:00.022Z,3.07
2019-02-17T15:33:30.914Z,2.33
2019-02-17T15:36:01.905Z,1.80
2019-02-17T15:38:32.807Z,10.10
2019-02-17T15:41:03.682Z,4.20
2019-02-17T15:43:34.798Z,4.00
2019-02-17T15:46:05.715Z,4.33
2019-02-17T15:48:36.462Z,5.13
2019-02-17T15:51:07.310Z,6.87
2019-02-17T15:53:38.150Z,3.73
2019-02-17T15:56:08.797Z,3.10
2019-02-17T15:58:40.143Z,3.77
2019-02-17T16:01:10.991Z,3.40
2019-02-17T16:03:41.590Z,2.20
2019-02-17T16:06:12.626Z,3.50
2019-02-17T16:08:43.312Z,3.57
2019-02-17T16:11:14.850Z,4.80
2019-02-17T16:13:45.497Z,4.57
2019-02-17T16:16:16.104Z,2.90
2019-02-17T16:18:46.946Z,1.63
2019-02-17T16:21:18.003Z,3.40
2019-02-17T16:23:48.910Z,3.77
2019-02-17T16:26:19.783Z,4.07
2019-02-17T16:28:50.372Z,1.47
2019-02-17T16:31:21.049Z,4.90
2019-02-17T16:33:51.706Z,4.23
2019-02-17T16:36:22.866Z,5.07
2019-02-17T16:38:53.639Z,3.27
2019-02-17T16:41:24.741Z,4.07
2019-02-17T16:43:55.538Z,5.30
2019-02-17T16:46:26.275Z,6.53
2019-02-17T16:48:56.960Z,3.67
2019-02-17T16:51:27.803Z,4.13
2019-02-17T16:53:58.680Z,1.67
2019-02-17T16:56:29.201Z,4.37
2019-02-17T16:59:01.659Z,2.80
2019-02-17T17:01:32.866Z,2.57
2019-02-17T17:04:03.746Z,6.57
2019-02-17T17:06:34.258Z,3.53
2019-02-17T17:09:06.666Z,3.30
2019-02-17T17:11:38.713Z,5.40
2019-02-17T17:14:09.562Z,2.50
2019-02-17T17:16:40.343Z,5.13
2019-02-17T17:19:11.314Z,4.53
2019-02-17T17:21:42.369Z,4.60
2019-02-17T17:24:13.186Z,6.73
2019-02-17T17:26:44.053Z,5.90
2019-02-17T17:29:15.295Z,4.03
2019-02-17T17:31:46.213Z,7.67
2019-02-17T17:34:17.118Z,6.77
2019-02-17T17:36:48.077Z,6.00
2019-02-17T17:39:18.740Z,8.70
2019-02-17T17:41:49.663Z,8.17
2019-02-17T17:44:20.617Z,7.77
2019-02-17T17:46:51.346Z,5.13
2019-02-17T17:49:22.349Z,4.10
2019-02-17T17:51:53.101Z,6.27
2019-02-17T17:54:24.107Z,7.30
2019-02-17T17:56:55.095Z,4.77
2019-02-17T17:59:25.994Z,5.07
2019-02-17T18:01:57.035Z,5.33
2019-02-17T18:04:28.860Z,5.67
2019-02-17T18:06:59.626Z,5.73
2019-02-17T18:09:30.470Z,4.53
2019-02-17T18:12:01.199Z,3.53
2019-02-17T18:14:33.970Z,5.53
2019-02-17T18:17:04.755Z,7.47
2019-02-17T18:19:35.672Z,4.30
2019-02-17T18:22:06.458Z,3.53
2019-02-17T18:24:37.126Z,4.77
2019-02-17T18:27:07.903Z,3.33
2019-02-17T18:29:38.582Z,4.60
2019-02-17T18:32:09.470Z,7.80
2019-02-17T18:34:40.327Z,7.13
2019-02-17T18:37:10.956Z,5.77
2019-02-17T18:39:41.650Z,4.87
2019-02-17T18:42:22.342Z,8.23
2019-02-17T18:44:53.860Z,4.33
2019-02-17T18:47:24.958Z,3.87
2019-02-17T18:49:55.534Z,5.17
2019-02-17T18:52:26.527Z,6.50
2019-02-17T18:54:57.363Z,6.50
2019-02-17T18:57:28.409Z,5.63
2019-02-17T18:59:59.638Z,5.30
2019-02-17T19:02:30.781Z,5.80
2019-02-17T19:05:01.742Z,5.50
2019-02-17T19:07:32.787Z,5.23
2019-02-17T19:10:04.643Z,5.40
2019-02-17T19:12:36.464Z,3.33
2019-02-17T19:15:08.138Z,4.40
2019-02-17T19:17:38.715Z,3.90
2019-02-17T19:20:11.262Z,4.83
2019-02-17T19:22:41.863Z,4.93
2019-02-17T19:25:12.772Z,3.43
2019-02-17T19:27:44.812Z,6.57
2019-02-17T19:30:16.138Z,5.33
2019-02-17T19:32:46.731Z,5.17
2019-02-17T19:35:17.939Z,4.47
2019-02-17T19:37:48.622Z,4.50
2019-02-17T19:40:19.465Z,5.23
2019-02-17T19:42:50.125Z,5.73
2019-02-17T19:45:20.970Z,6.43
2019-02-17T19:47:51.911Z,3.60
2019-02-17T19:50:22.791Z,4.93
2019-02-17T19:52:53.336Z,5.13
2019-02-17T19:55:25.654Z,5.07
2019-02-17T19:57:56.678Z,5.40
2019-02-17T20:00:27.667Z,5.70
2019-02-17T20:03:32.434Z,6.03
2019-02-17T20:06:04.299Z,6.93
2019-02-17T20:08:38.166Z,5.13
2019-02-17T20:11:09.366Z,5.37
2019-02-17T20:13:40.050Z,6.17
2019-02-17T20:16:10.865Z,7.90
2019-02-17T20:18:41.487Z,4.23
2019-02-17T20:21:12.679Z,6.73
2019-02-17T20:23:43.395Z,6.70
2019-02-17T20:26:15.461Z,4.70
2019-02-17T20:28:46.250Z,5.00
2019-02-17T20:31:16.898Z,5.00
2019-02-17T20:33:47.743Z,5.53
2019-02-17T20:36:18.473Z,5.73
2019-02-17T20:38:49.360Z,4.20
2019-02-17T20:41:20.461Z,6.53
2019-02-17T20:43:51.234Z,3.90
2019-02-17T20:46:22.664Z,5.47
2019-02-17T20:48:54.403Z,4.03
2019-02-17T20:51:25.139Z,5.30
2019-02-17T20:53:56.646Z,5.30
2019-02-17T20:56:28.344Z,4.67
2019-02-17T20:58:59.022Z,6.53
2019-02-17T21:01:31.475Z,5.07
2019-02-17T21:04:03.379Z,5.40
2019-02-17T21:06:34.933Z,6.17
2019-02-17T21:09:06.442Z,4.37
2019-02-17T21:11:39.251Z,4.27
2019-02-17T21:14:09.834Z,4.87
2019-02-17T21:16:40.642Z,5.27
2019-02-17T21:19:11.514Z,3.90
2019-02-17T21:21:42.130Z,4.67
2019-02-17T21:24:13.214Z,6.43
2019-02-17T21:26:43.689Z,5.70
2019-02-17T21:29:15.684Z,4.30
2019-02-17T21:31:46.498Z,3.80
2019-02-17T21:34:17.048Z,5.53
2019-02-17T21:36:47.778Z,3.77
2019-02-17T21:39:18.510Z,5.90
2019-02-17T21:41:49.180Z,6.27
2019-02-17T21:44:20.143Z,3.20
2019-02-17T21:46:51.026Z,6.20
2019-02-17T21:49:22.067Z,3.13
2019-02-17T21:51:53.008Z,5.63
2019-02-17T21:54:24.742Z,3.30
2019-02-17T21:56:55.526Z,4.53
2019-02-17T21:59:26.340Z,7.70
2019-02-17T22:01:57.484Z,6.87
2019-02-17T22:04:29.172Z,4.57
2019-02-17T22:07:00.076Z,3.93
2019-02-17T22:09:30.915Z,4.50
2019-02-17T22:12:02.208Z,4.80
2019-02-17T22:14:32.959Z,3.70
2019-02-17T22:17:03.614Z,6.27
2019-02-17T22:19:35.339Z,5.30
2019-02-17T22:22:05.934Z,3.53
2019-02-17T22:24:36.979Z,4.23
2019-02-17T22:27:08.138Z,5.00
2019-02-17T22:29:39.042Z,3.23
2019-02-17T22:32:09.975Z,4.03
2019-02-17T22:34:40.830Z,4.53
2019-02-17T22:37:11.414Z,5.43
2019-02-17T22:39:41.999Z,3.83
2019-02-17T22:42:13.946Z,3.37
2019-02-17T22:44:44.834Z,3.43
2019-02-17T22:47:15.830Z,6.40
2019-02-17T22:49:46.895Z,5.00
2019-02-17T22:52:17.603Z,4.27
2019-02-17T22:54:49.139Z,5.20
2019-02-17T22:57:19.970Z,4.83
2019-02-17T22:59:50.963Z,6.30
2019-02-17T23:02:23.204Z,5.87
2019-02-17T23:04:54.270Z,4.30
2019-02-17T23:07:25.160Z,5.80
2019-02-17T23:09:56.053Z,4.70
2019-02-17T23:12:26.966Z,4.13
2019-02-17T23:14:57.526Z,5.23
2019-02-17T23:17:28.338Z,3.73
2019-02-17T23:19:59.062Z,3.87
2019-02-17T23:22:29.599Z,4.67
2019-02-17T23:25:01.336Z,3.90
2019-02-17T23:27:32.391Z,4.17
2019-02-17T23:30:03.368Z,2.80
2019-02-17T23:32:34.371Z,3.13
2019-02-17T23:35:05.838Z,5.27
2019-02-17T23:37:36.673Z,4.90
2019-02-17T23:40:08.710Z,4.80
2019-02-17T23:42:39.362Z,3.83
2019-02-17T23:45:10.163Z,4.80
2019-02-17T23:47:41.243Z,3.53
2019-02-17T23:50:12.087Z,4.43
2019-02-17T23:52:43.598Z,4.83
2019-02-17T23:55:14.373Z,4.37
2019-02-17T23:57:45.501Z,5.77
